Time;durP1;ratioP1;P1;durP2;ratioP2;P2;SDS_P1;SDS_P2;PMS_P1;PMS_P2;Temp;Humidity;BMP_temperature;BMP_pressure;BME280_temperature;BME280_humidity;BME280_pressure;Samples;Min_cycle;Max_cycle;Signal;HPM_P1;HPM_P2
2023/07/20 00:02:11;;;;;;;13.65;9.35;;;;;;;15.44;100.00;100883.97;5090641;28;20051;-56
2023/07/20 00:04:38;;;;;;;12.05;8.88;;;;;;;15.36;100.00;100887.13;5098641;28;20112;-56
2023/07/20 00:07:05;;;;;;;15.02;9.55;;;;;;;15.31;100.00;100889.22;5095572;28;20127;-56
2023/07/20 00:09:31;;;;;;;12.48;10.02;;;;;;;15.31;100.00;100883.88;5086249;28;20097;-56
2023/07/20 00:12:00;;;;;;;12.52;9.48;;;;;;;15.26;100.00;100880.66;5078788;28;20062;-56
2023/07/20 00:14:27;;;;;;;12.30;9.05;;;;;;;15.33;100.00;100892.63;5088182;28;20109;-56
2023/07/20 00:16:55;;;;;;;14.55;8.95;;;;;;;15.32;100.00;100882.94;5078644;28;20044;-56
2023/07/20 00:19:24;;;;;;;11.23;9.00;;;;;;;15.28;100.00;100889.41;5083878;28;20040;-56
2023/07/20 00:21:51;;;;;;;13.88;9.73;;;;;;;15.30;100.00;100882.16;5080940;28;20130;-56
2023/07/20 00:24:18;;;;;;;11.45;9.02;;;;;;;15.30;100.00;100887.50;5087302;28;20510;-56
2023/07/20 00:26:45;;;;;;;10.32;9.10;;;;;;;15.25;100.00;100885.13;5091205;28;20052;-56
2023/07/20 00:29:11;;;;;;;14.52;9.70;;;;;;;15.24;100.00;100872.78;5091773;28;20047;-55
2023/07/20 00:31:38;;;;;;;17.60;11.07;;;;;;;15.20;100.00;100877.44;5084322;28;20156;-56
2023/07/20 00:34:05;;;;;;;12.85;8.82;;;;;;;15.23;100.00;100881.69;5075832;28;20060;-56
2023/07/20 00:36:32;;;;;;;12.50;9.32;;;;;;;15.19;100.00;100874.88;5087911;28;20494;-56
2023/07/20 00:38:58;;;;;;;12.95;10.00;;;;;;;15.22;100.00;100885.34;5083664;28;20082;-56
2023/07/20 00:41:29;;;;;;;15.20;10.27;;;;;;;15.15;100.00;100874.22;5088988;28;20050;-56
2023/07/20 00:43:56;;;;;;;16.23;9.43;;;;;;;15.20;100.00;100882.78;5085043;28;20044;-56
2023/07/20 00:46:25;;;;;;;11.55;10.13;;;;;;;15.16;100.00;100885.72;5083825;28;20044;-56
2023/07/20 00:48:53;;;;;;;16.42;10.20;;;;;;;15.17;100.00;100890.94;5073852;28;20460;-56
2023/07/20 00:51:21;;;;;;;17.00;10.40;;;;;;;15.12;100.00;100885.06;5096699;28;20150;-56
2023/07/20 00:53:48;;;;;;;12.20;9.80;;;;;;;15.09;100.00;100892.34;5091954;28;20748;-56
2023/07/20 00:56:16;;;;;;;12.05;9.40;;;;;;;15.09;100.00;100893.22;5080514;28;20110;-56
2023/07/20 00:58:42;;;;;;;14.13;10.07;;;;;;;15.10;100.00;100889.59;5083735;28;20489;-56
2023/07/20 01:01:09;;;;;;;10.80;8.98;;;;;;;15.06;100.00;100896.09;5088452;28;20484;-56
2023/07/20 01:03:37;;;;;;;13.30;9.77;;;;;;;15.04;100.00;100882.03;5088594;28;20075;-56
2023/07/20 01:06:15;;;;;;;10.20;8.38;;;;;;;15.07;100.00;100887.13;5081380;28;20051;-55
2023/07/20 01:09:12;;;;;;;13.52;8.48;;;;;;;15.10;100.00;100880.75;5088882;28;20472;-56
2023/07/20 01:12:00;;;;;;;12.60;8.80;;;;;;;15.13;100.00;100881.41;5079262;28;20688;-56
2023/07/20 01:14:27;;;;;;;14.32;9.63;;;;;;;15.16;100.00;100873.25;5079765;28;20411;-56
2023/07/20 01:16:54;;;;;;;10.82;8.98;;;;;;;15.17;100.00;100877.63;5094413;28;20059;-56
2023/07/20 01:19:20;;;;;;;15.35;8.85;;;;;;;15.26;100.00;100883.31;5085199;28;20068;-56
2023/07/20 01:22:00;;;;;;;12.43;9.15;;;;;;;15.22;100.00;100880.00;5080236;28;20493;-56
2023/07/20 01:24:56;;;;;;;10.55;8.68;;;;;;;15.16;100.00;100881.22;5083363;28;20123;-56
2023/07/20 01:27:45;;;;;;;13.15;8.40;;;;;;;15.14;100.00;100877.81;5077540;28;20055;-56
2023/07/20 01:30:39;;;;;;;15.63;10.00;;;;;;;15.13;100.00;100881.41;5084763;28;20040;-56
2023/07/20 01:33:07;;;;;;;13.20;9.00;;;;;;;15.16;100.00;100881.22;5087586;28;20125;-56
2023/07/20 01:35:36;;;;;;;11.25;9.02;;;;;;;15.16;100.00;100891.88;5089136;28;20048;-56
2023/07/20 01:38:03;;;;;;;11.90;8.95;;;;;;;15.14;100.00;100872.50;5088125;28;20090;-56
2023/07/20 01:40:30;;;;;;;12.07;8.43;;;;;;;15.10;100.00;100876.28;5089267;28;20529;-56
2023/07/20 01:42:57;;;;;;;16.80;8.85;;;;;;;15.17;100.00;100876.75;5084758;28;20044;-55
2023/07/20 01:45:24;;;;;;;14.48;8.50;;;;;;;15.13;100.00;100876.09;5085492;28;20040;-56
2023/07/20 01:47:50;;;;;;;13.93;9.18;;;;;;;15.10;100.00;100870.97;5082263;28;20054;-56
2023/07/20 01:50:17;;;;;;;12.93;7.95;;;;;;;15.05;100.00;100875.72;5084643;28;20118;-56
2023/07/20 01:52:43;;;;;;;13.07;9.48;;;;;;;14.99;100.00;100874.31;5087633;28;20532;-56
2023/07/20 01:55:10;;;;;;;10.98;9.23;;;;;;;14.94;100.00;100865.78;5082335;28;20110;-56
2023/07/20 01:57:37;;;;;;;12.52;9.40;;;;;;;14.92;100.00;100872.13;5080549;28;20052;-56
2023/07/20 02:00:04;;;;;;;12.02;9.32;;;;;;;14.91;100.00;100875.72;5078779;28;20104;-56
2023/07/20 02:02:31;;;;;;;15.10;9.32;;;;;;;14.82;100.00;100872.69;5079878;28;20044;-56
2023/07/20 02:04:58;;;;;;;14.73;10.32;;;;;;;14.89;100.00;100877.63;5082539;28;20048;-55
2023/07/20 02:07:24;;;;;;;13.52;10.00;;;;;;;14.92;100.00;100880.09;5083985;28;20651;-56
2023/07/20 02:09:51;;;;;;;13.88;9.05;;;;;;;14.90;100.00;100874.88;5085714;28;20053;-56
2023/07/20 02:12:17;;;;;;;13.60;9.13;;;;;;;14.95;100.00;100885.25;5088645;28;20052;-56
2023/07/20 02:14:44;;;;;;;12.15;10.13;;;;;;;14.95;100.00;100877.25;5076273;28;20618;-56
2023/07/20 02:17:10;;;;;;;17.35;8.80;;;;;;;15.05;100.00;100883.72;5084721;28;20139;-56
2023/07/20 02:19:37;;;;;;;11.88;8.98;;;;;;;15.07;100.00;100873.81;5076053;28;20101;-56
2023/07/20 02:22:05;;;;;;;10.95;9.50;;;;;;;15.02;100.00;100884.78;5081423;28;20062;-56
2023/07/20 02:24:32;;;;;;;16.45;9.40;;;;;;;15.01;100.00;100884.88;5085455;28;20048;-56
2023/07/20 02:26:58;;;;;;;17.45;10.25;;;;;;;15.10;100.00;100878.94;5083175;28;20490;-57
2023/07/20 02:29:25;;;;;;;12.38;8.55;;;;;;;15.11;100.00;100882.50;5073467;28;20047;-57
2023/07/20 02:31:51;;;;;;;12.10;8.60;;;;;;;15.16;100.00;100885.72;5082312;28;20062;-57
2023/07/20 02:34:18;;;;;;;11.00;9.15;;;;;;;15.11;100.00;100878.00;5079141;28;20053;-57
2023/07/20 02:36:46;;;;;;;15.23;9.23;;;;;;;15.14;100.00;100876.97;5082191;28;20055;-57
2023/07/20 02:39:12;;;;;;;16.60;9.20;;;;;;;15.06;100.00;100874.78;5084970;28;20052;-56
2023/07/20 02:41:39;;;;;;;13.77;9.65;;;;;;;15.06;100.00;100880.09;5079982;28;20140;-56
2023/07/20 02:44:05;;;;;;;11.95;9.75;;;;;;;15.02;100.00;100881.25;5083008;28;20083;-56
2023/07/20 02:46:32;;;;;;;16.90;10.10;;;;;;;14.99;100.00;100878.75;5081813;28;20039;-57
2023/07/20 02:48:58;;;;;;;12.98;10.75;;;;;;;15.12;100.00;100885.06;5085806;28;20102;-57
2023/07/20 02:51:25;;;;;;;13.32;10.50;;;;;;;15.08;100.00;100880.00;5084711;28;20498;-56
2023/07/20 02:53:51;;;;;;;11.52;10.23;;;;;;;15.07;100.00;100892.44;5087471;28;20052;-56
2023/07/20 02:56:18;;;;;;;12.18;10.05;;;;;;;15.14;100.00;100885.81;5083396;28;20059;-56
2023/07/20 02:58:45;;;;;;;20.13;11.20;;;;;;;15.26;100.00;100886.84;5084088;28;20119;-56
2023/07/20 03:01:13;;;;;;;17.83;10.80;;;;;;;15.21;100.00;100884.47;5079524;28;20549;-57
2023/07/20 03:03:39;;;;;;;13.90;11.18;;;;;;;15.24;100.00;100889.59;5081779;28;20052;-57
2023/07/20 03:06:09;;;;;;;18.13;11.00;;;;;;;15.30;100.00;100887.50;5081437;28;20046;-56
2023/07/20 03:08:36;;;;;;;15.90;10.65;;;;;;;15.23;100.00;100887.91;5081738;28;20576;-57
2023/07/20 03:11:02;;;;;;;16.38;12.10;;;;;;;15.13;100.00;100886.75;5088134;28;20050;-56
2023/07/20 03:13:29;;;;;;;16.13;11.68;;;;;;;15.24;100.00;100889.59;5085607;28;20052;-57
2023/07/20 03:15:56;;;;;;;15.07;11.27;;;;;;;15.35;100.00;100885.38;5087818;28;20080;-57
2023/07/20 03:18:22;;;;;;;16.90;12.00;;;;;;;15.41;100.00;100890.34;5074788;28;20048;-56
2023/07/20 03:20:49;;;;;;;16.45;11.32;;;;;;;15.40;100.00;100892.16;5088077;28;20044;-57
2023/07/20 03:23:16;;;;;;;17.63;11.75;;;;;;;15.31;100.00;100891.88;5076843;28;20501;-56
2023/07/20 03:25:43;;;;;;;18.95;13.30;;;;;;;15.21;100.00;100895.09;5085481;28;20048;-56
2023/07/20 03:28:09;;;;;;;17.65;12.85;;;;;;;15.12;100.00;100895.72;5086647;28;20083;-56
2023/07/20 03:30:36;;;;;;;18.77;12.82;;;;;;;15.31;100.00;100899.88;5087770;28;20076;-57
2023/07/20 03:33:03;;;;;;;17.67;13.05;;;;;;;15.27;100.00;100898.34;5083044;28;20052;-56
2023/07/20 03:35:31;;;;;;;21.70;14.05;;;;;;;15.30;100.00;100893.69;5082192;28;20055;-56
2023/07/20 03:37:57;;;;;;;22.67;14.27;;;;;;;15.23;100.00;100895.88;5090183;28;20062;-56
2023/07/20 03:40:24;;;;;;;23.17;15.77;;;;;;;15.16;100.00;100891.88;5090058;28;20055;-57
2023/07/20 03:42:51;;;;;;;23.48;16.67;;;;;;;15.05;100.00;100891.69;5087978;28;20040;-56
2023/07/20 03:45:17;;;;;;;23.10;18.08;;;;;;;15.11;100.00;100893.97;5077462;28;20135;-57
2023/07/20 03:47:44;;;;;;;27.00;17.65;;;;;;;15.05;100.00;100900.56;5091149;28;20522;-56
2023/07/20 03:50:11;;;;;;;25.52;17.33;;;;;;;15.21;100.00;100892.44;5079875;28;20084;-56
2023/07/20 03:52:37;;;;;;;25.52;18.08;;;;;;;15.20;100.00;100904.06;5088343;28;20140;-56
2023/07/20 03:55:04;;;;;;;31.33;19.25;;;;;;;15.03;100.00;100910.41;5083088;28;20135;-56
2023/07/20 03:57:32;;;;;;;27.05;20.08;;;;;;;14.96;100.00;100916.25;5090894;28;20055;-56
2023/07/20 03:59:59;;;;;;;28.23;19.63;;;;;;;14.96;100.00;100918.91;5088111;28;20076;-57
2023/07/20 04:02:25;;;;;;;33.60;19.88;;;;;;;14.93;100.00;100911.09;5099497;28;20062;-56
2023/07/20 04:04:52;;;;;;;32.63;20.08;;;;;;;14.95;100.00;100915.38;5096932;28;20044;-57
2023/07/20 04:07:18;;;;;;;27.45;17.50;;;;;;;15.08;100.00;100925.28;5090802;28;20050;-56
2023/07/20 04:09:45;;;;;;;28.75;19.08;;;;;;;14.95;100.00;100920.69;5082764;28;20082;-56
2023/07/20 04:12:11;;;;;;;26.58;16.98;;;;;;;15.03;100.00;100917.56;5091135;28;20040;-56
2023/07/20 04:14:38;;;;;;;27.55;19.00;;;;;;;15.18;100.00;100929.91;5088965;28;20686;-57
2023/07/20 04:17:05;;;;;;;22.80;16.30;;;;;;;14.90;100.00;100917.47;5090381;28;20107;-56
2023/07/20 04:19:31;;;;;;;22.70;16.67;;;;;;;15.07;100.00;100924.38;5089353;28;20052;-56
2023/07/20 04:21:58;;;;;;;25.70;17.30;;;;;;;15.01;100.00;100915.00;5088500;28;20062;-56
2023/07/20 04:24:24;;;;;;;21.85;16.58;;;;;;;15.00;100.00;100917.75;5093583;28;20124;-56
2023/07/20 04:26:51;;;;;;;23.33;16.08;;;;;;;15.16;100.00;100928.31;5095460;28;20050;-57
2023/07/20 04:29:17;;;;;;;24.65;17.25;;;;;;;15.21;100.00;100920.88;5087570;28;20144;-56
2023/07/20 04:31:44;;;;;;;22.30;15.77;;;;;;;15.14;100.00;100909.78;5086165;28;20131;-56
2023/07/20 04:34:10;;;;;;;26.52;15.63;;;;;;;15.22;100.00;100918.13;5090884;28;20706;-56
2023/07/20 04:36:37;;;;;;;18.58;15.18;;;;;;;15.20;100.00;100919.16;5089596;28;20044;-56
2023/07/20 04:39:04;;;;;;;18.80;14.40;;;;;;;15.20;100.00;100919.16;5086254;28;20044;-56
2023/07/20 04:41:40;;;;;;;23.98;14.88;;;;;;;15.06;100.00;100928.03;5080764;28;20048;-56
2023/07/20 04:44:06;;;;;;;20.80;15.00;;;;;;;15.13;100.00;100929.34;5085018;28;20058;-56
2023/07/20 04:46:33;;;;;;;20.90;14.77;;;;;;;15.34;100.00;100926.31;5086402;28;20519;-56
2023/07/20 04:48:59;;;;;;;24.25;15.43;;;;;;;15.39;100.00;100918.88;5087163;28;20139;-57
2023/07/20 04:51:30;;;;;;;15.98;13.60;;;;;;;15.59;100.00;100907.81;5090017;28;20040;-56
2023/07/20 04:53:56;;;;;;;16.08;13.32;;;;;;;15.72;100.00;100907.00;5081267;28;20564;-56
2023/07/20 04:56:24;;;;;;;16.13;12.02;;;;;;;15.69;100.00;100902.75;5077785;28;20570;-56
2023/07/20 04:58:51;;;;;;;14.27;11.57;;;;;;;15.80;100.00;100912.72;5080445;28;20044;-56
2023/07/20 05:01:17;;;;;;;14.85;10.57;;;;;;;15.91;100.00;100904.88;5089586;28;20054;-56
2023/07/20 05:03:44;;;;;;;11.68;10.05;;;;;;;15.86;100.00;100907.00;5083499;28;20636;-56
2023/07/20 05:06:12;;;;;;;17.85;10.98;;;;;;;15.87;100.00;100903.41;5087879;28;20187;-56
2023/07/20 05:08:38;;;;;;;12.40;10.25;;;;;;;15.85;100.00;100901.78;5089893;28;20138;-57
2023/07/20 05:11:05;;;;;;;13.98;10.27;;;;;;;15.83;100.00;100907.19;5087751;28;20123;-56
2023/07/20 05:13:31;;;;;;;16.95;11.32;;;;;;;15.71;100.00;100903.50;5087188;28;20056;-56
2023/07/20 05:15:58;;;;;;;14.48;10.70;;;;;;;15.88;100.00;100906.91;5084213;28;20048;-56
2023/07/20 05:18:25;;;;;;;15.95;10.90;;;;;;;16.08;100.00;100911.75;5087158;28;20048;-57
2023/07/20 05:20:52;;;;;;;13.52;10.70;;;;;;;16.07;100.00;100914.53;5086476;28;20055;-56
2023/07/20 05:23:21;;;;;;;16.75;9.82;;;;;;;16.22;100.00;100907.34;5086381;28;20150;-56
2023/07/20 05:25:58;;;;;;;12.00;9.93;;;;;;;16.17;100.00;100909.44;5079507;28;20084;-56
2023/07/20 05:28:28;;;;;;;13.68;10.68;;;;;;;15.74;100.00;100907.75;5088983;28;20055;-56
2023/07/20 05:30:55;;;;;;;15.38;10.07;;;;;;;16.15;100.00;100913.09;5079299;28;20083;-56
2023/07/20 05:33:22;;;;;;;15.07;9.52;;;;;;;16.25;100.00;100913.31;5087150;28;20106;-55
2023/07/20 05:35:48;;;;;;;18.70;10.00;;;;;;;16.19;100.00;100912.88;5083384;28;20371;-56
2023/07/20 05:38:15;;;;;;;14.75;9.93;;;;;;;16.23;100.00;100917.03;5088775;28;20058;-56
2023/07/20 05:40:45;;;;;;;11.88;9.32;;;;;;;16.34;100.00;100925.19;5071977;28;20649;-55
2023/07/20 05:43:11;;;;;;;15.60;10.45;;;;;;;16.39;100.00;100924.88;5086642;28;20088;-55
2023/07/20 05:45:41;;;;;;;13.32;10.35;;;;;;;15.95;100.00;100921.53;5078319;28;20056;-55
2023/07/20 05:48:12;;;;;;;14.95;10.05;;;;;;;15.80;100.00;100923.38;5083730;28;20155;-56
2023/07/20 05:50:46;;;;;;;11.80;10.02;;;;;;;15.85;100.00;100931.09;5077626;28;20457;-55
2023/07/20 05:53:12;;;;;;;14.73;10.00;;;;;;;15.98;100.00;100925.81;5089225;28;20127;-55
2023/07/20 05:55:39;;;;;;;15.10;9.77;;;;;;;15.88;100.00;100929.06;5088925;28;20135;-56
2023/07/20 05:58:06;;;;;;;12.50;9.75;;;;;;;15.73;100.00;100940.72;5089749;28;20113;-56
2023/07/20 06:00:33;;;;;;;15.48;10.13;;;;;;;15.82;100.00;100929.47;5070176;28;20049;-56
2023/07/20 06:02:59;;;;;;;13.05;8.38;;;;;;;16.14;100.00;100938.03;5068121;28;20044;-56
2023/07/20 06:05:26;;;;;;;9.30;8.30;;;;;;;16.45;100.00;100935.97;5074912;28;20413;-57
2023/07/20 06:07:55;;;;;;;12.30;8.95;;;;;;;16.65;100.00;100931.94;5083065;28;20102;-55
2023/07/20 06:10:22;;;;;;;11.07;8.15;;;;;;;16.74;100.00;100929.63;5068309;28;20052;-56
2023/07/20 06:12:48;;;;;;;14.15;8.30;;;;;;;16.69;100.00;100925.47;5068645;28;20152;-56
2023/07/20 06:15:34;;;;;;;9.32;6.80;;;;;;;16.17;100.00;100920.97;5068157;28;20564;-55
2023/07/20 06:18:01;;;;;;;7.32;5.57;;;;;;;16.18;100.00;100921.84;5080571;28;20134;-56
2023/07/20 06:20:28;;;;;;;13.80;5.85;;;;;;;15.92;100.00;100929.72;5088993;28;20392;-56
2023/07/20 06:22:54;;;;;;;8.23;5.15;;;;;;;16.18;100.00;100930.69;5087508;28;20044;-55
2023/07/20 06:25:21;;;;;;;10.27;5.57;;;;;;;16.06;100.00;100936.84;5075543;28;20131;-56
2023/07/20 06:27:50;;;;;;;6.68;4.53;;;;;;;16.18;100.00;100938.69;5087287;28;20052;-57
2023/07/20 06:30:16;;;;;;;7.82;4.13;;;;;;;16.47;100.00;100927.88;5068247;28;20138;-57
2023/07/20 06:32:43;;;;;;;7.80;4.18;;;;;;;16.73;100.00;100922.59;5070171;28;20436;-57
2023/07/20 06:35:09;;;;;;;6.57;4.68;;;;;;;16.83;100.00;100915.63;5082254;28;20086;-56
2023/07/20 06:37:36;;;;;;;5.95;3.40;;;;;;;16.87;100.00;100912.69;5088805;28;20044;-57
2023/07/20 06:40:04;;;;;;;6.72;3.20;;;;;;;16.47;100.00;100911.88;5082926;28;20048;-57
2023/07/20 06:42:33;;;;;;;6.40;3.50;;;;;;;16.32;100.00;100914.59;5073801;28;20044;-56
2023/07/20 06:45:03;;;;;;;6.05;3.53;;;;;;;16.54;100.00;100922.97;5084521;28;20048;-56
2023/07/20 06:47:31;;;;;;;6.90;3.60;;;;;;;16.66;100.00;100917.66;5087013;28;20058;-56
2023/07/20 06:49:58;;;;;;;4.85;2.85;;;;;;;16.27;100.00;100922.06;5073612;28;20071;-56
2023/07/20 06:52:25;;;;;;;3.33;2.35;;;;;;;16.60;100.00;100918.06;5087327;28;20083;-56
2023/07/20 06:54:51;;;;;;;4.72;2.10;;;;;;;16.32;100.00;100917.28;5085471;28;20349;-56
2023/07/20 06:57:18;;;;;;;5.22;1.88;;;;;;;16.27;100.00;100919.41;5088597;28;20106;-56
2023/07/20 06:59:45;;;;;;;1.90;1.70;;;;;;;16.83;100.00;100908.47;5084356;28;20746;-57
2023/07/20 07:02:17;;;;;;;4.22;1.77;;;;;;;16.79;100.00;100901.66;5073987;28;20040;-56
2023/07/20 07:04:48;;;;;;;2.63;1.30;;;;;;;17.32;100.00;100901.53;5078393;28;20135;-56
2023/07/20 07:07:15;;;;;;;11.23;2.00;;;;;;;17.58;100.00;100904.16;5079166;28;20047;-56
2023/07/20 07:09:52;;;;;;;4.15;2.28;;;;;;;17.81;100.00;100899.78;5081598;28;20436;-56
2023/07/20 07:12:19;;;;;;;3.30;1.63;;;;;;;17.97;100.00;100894.19;5083304;28;20050;-56
2023/07/20 07:14:45;;;;;;;3.63;2.10;;;;;;;17.33;100.00;100905.91;5083484;28;20127;-57
2023/07/20 07:17:12;;;;;;;1.90;1.60;;;;;;;17.14;100.00;100906.38;5087129;28;20136;-57
2023/07/20 07:19:38;;;;;;;5.53;1.70;;;;;;;17.16;100.00;100903.59;5086460;28;20058;-59
2023/07/20 07:22:05;;;;;;;3.05;1.30;;;;;;;17.54;100.00;100903.53;5087069;28;20055;-59
2023/07/20 07:24:33;;;;;;;2.30;1.38;;;;;;;17.29;100.00;100907.09;5091684;28;20080;-59
2023/07/20 07:27:01;;;;;;;6.43;1.67;;;;;;;17.32;100.00;100906.03;5091164;28;20052;-59
2023/07/20 07:29:27;;;;;;;1.80;1.02;;;;;;;17.48;100.00;100911.13;5089704;28;20490;-59
2023/07/20 07:31:55;;;;;;;3.20;1.20;;;;;;;17.02;100.00;100908.09;5083017;28;20124;-59
2023/07/20 07:34:21;;;;;;;2.85;1.33;;;;;;;17.40;100.00;100907.16;5071418;28;20062;-59
2023/07/20 07:36:48;;;;;;;2.30;1.20;;;;;;;17.77;100.00;100907.19;5078742;28;20226;-57
2023/07/20 07:39:15;;;;;;;3.58;0.88;;;;;;;18.13;100.00;100894.75;5087278;28;20071;-56
2023/07/20 07:42:00;;;;;;;1.95;0.75;;;;;;;18.36;100.00;100889.47;5087543;28;20040;-56
2023/07/20 07:44:27;;;;;;;2.55;0.90;;;;;;;18.16;100.00;100904.34;5092791;28;20405;-58
2023/07/20 07:46:53;;;;;;;1.88;1.00;;;;;;;17.85;100.00;100900.41;5089387;28;20044;-58
2023/07/20 07:49:20;;;;;;;1.63;1.23;;;;;;;17.87;100.00;100901.16;5087732;28;20054;-58
2023/07/20 07:51:46;;;;;;;2.33;1.15;;;;;;;18.25;100.00;100908.16;5089260;28;20097;-58
2023/07/20 07:54:13;;;;;;;1.90;0.73;;;;;;;18.17;100.00;100904.22;5090713;28;20043;-58
2023/07/20 07:56:40;;;;;;;3.38;1.20;;;;;;;17.88;100.00;100901.06;5083032;28;20052;-58
2023/07/20 07:59:07;;;;;;;2.08;0.90;;;;;;;17.62;100.00;100905.59;5072526;28;20048;-57
2023/07/20 08:01:34;;;;;;;5.18;1.05;;;;;;;17.42;100.00;100913.25;5089631;28;20643;-58
2023/07/20 08:04:01;;;;;;;1.35;1.00;;;;;;;17.36;100.00;100921.72;5086373;28;20090;-61
2023/07/20 08:06:27;;;;;;;2.35;1.00;;;;;;;17.16;100.00;100924.94;5079232;28;20520;-57
2023/07/20 08:08:54;;;;;;;11.00;1.60;;;;;;;17.71;100.00;100921.00;5089195;28;20063;-59
2023/07/20 08:11:20;;;;;;;2.67;1.02;;;;;;;17.72;100.00;100927.19;5089323;28;20127;-57
2023/07/20 08:13:47;;;;;;;3.08;1.15;;;;;;;17.40;100.00;100928.53;5084663;28;20080;-58
2023/07/20 08:16:14;;;;;;;2.88;1.10;;;;;;;17.20;100.00;100929.13;5085121;28;20609;-57
2023/07/20 08:18:40;;;;;;;2.30;1.33;;;;;;;17.56;100.00;100930.97;5093206;28;20062;-57
2023/07/20 08:21:07;;;;;;;2.95;1.10;;;;;;;17.61;100.00;100926.16;5088863;28;20140;-57
2023/07/20 08:23:34;;;;;;;8.02;1.80;;;;;;;18.43;100.00;100922.81;5085199;28;20052;-58
2023/07/20 08:26:01;;;;;;;3.78;1.25;;;;;;;18.87;100.00;100921.25;5072688;28;20139;-59
2023/07/20 08:28:29;;;;;;;1.75;0.88;;;;;;;18.88;100.00;100916.72;5089140;28;20420;-57
2023/07/20 08:30:55;;;;;;;1.67;1.10;;;;;;;18.55;100.00;100925.53;5083586;28;20491;-58
2023/07/20 08:33:23;;;;;;;5.75;1.02;;;;;;;18.50;100.00;100929.41;5078880;28;20052;-57
2023/07/20 08:35:50;;;;;;;2.13;1.00;;;;;;;18.58;100.00;100926.13;5077663;28;20071;-57
2023/07/20 08:38:16;;;;;;;3.25;1.10;;;;;;;18.25;100.00;100934.91;5077460;28;20052;-57
2023/07/20 08:40:45;;;;;;;4.50;1.63;;;;;;;18.10;100.00;100937.75;5087327;28;20048;-57
2023/07/20 08:43:13;;;;;;;8.48;1.80;;;;;;;18.11;100.00;100939.47;5071077;28;20037;-56
2023/07/20 08:45:41;;;;;;;5.35;1.60;;;;;;;18.44;100.00;100935.22;5088150;28;20631;-57
2023/07/20 08:48:08;;;;;;;3.00;1.33;;;;;;;17.90;100.00;100947.28;5086937;28;20076;-57
2023/07/20 08:50:35;;;;;;;6.10;1.77;;;;;;;17.59;100.00;100948.63;5080787;28;20580;-57
2023/07/20 08:53:02;;;;;;;2.72;1.33;;;;;;;18.09;100.00;100941.41;5084321;28;20040;-57
2023/07/20 08:55:30;;;;;;;3.63;0.80;;;;;;;18.05;100.00;100925.72;5087218;28;20060;-57
2023/07/20 08:57:59;;;;;;;6.85;0.90;;;;;;;18.73;100.00;100926.78;5086442;28;20154;-56
2023/07/20 09:00:26;;;;;;;2.85;0.68;;;;;;;18.56;100.00;100921.88;5086670;28;20492;-55
2023/07/20 09:02:54;;;;;;;2.88;0.93;;;;;;;18.62;100.00;100926.75;5084314;28;20225;-55
2023/07/20 09:05:23;;;;;;;0.52;0.40;;;;;;;18.59;100.00;100917.16;5088073;28;20191;-56
2023/07/20 09:07:55;;;;;;;2.67;0.60;;;;;;;18.70;100.00;100918.97;5086921;28;20052;-56
2023/07/20 09:10:23;;;;;;;1.20;0.60;;;;;;;18.73;100.00;100913.38;5086293;28;20139;-56
2023/07/20 09:12:51;;;;;;;4.68;0.70;;;;;;;19.38;100.00;100929.78;5087720;28;20051;-56
2023/07/20 09:15:19;;;;;;;5.00;0.63;;;;;;;19.99;100.00;100918.59;5086135;28;20157;-56
2023/07/20 09:17:50;;;;;;;8.70;0.90;;;;;;;20.78;100.00;100920.09;5082036;28;20048;-55
2023/07/20 09:20:18;;;;;;;2.90;0.50;;;;;;;20.53;100.00;100928.38;5079158;28;20359;-55
2023/07/20 09:22:49;;;;;;;;;;;;;;;20.87;100.00;100927.34;5084350;28;20048;-55
2023/07/20 09:25:19;;;;;;;4.43;0.50;;;;;;;20.97;100.00;100930.91;5082672;28;19928;-56
2023/07/20 09:27:49;;;;;;;7.65;0.93;;;;;;;20.41;100.00;100926.72;5084383;28;20052;-55
2023/07/20 09:30:18;;;;;;;0.57;0.30;;;;;;;19.76;100.00;100928.53;5082316;28;20044;-56
2023/07/20 09:32:48;;;;;;;5.38;0.73;;;;;;;19.33;100.00;100929.31;5104915;28;20129;-55
2023/07/20 09:35:22;;;;;;;2.30;0.35;;;;;;;18.61;100.00;100933.09;5086319;28;20075;-54
2023/07/20 09:37:57;;;;;;;1.38;0.88;;;;;;;18.54;100.00;100935.38;5084864;28;20067;-55
2023/07/20 09:40:27;;;;;;;4.30;0.57;;;;;;;18.98;100.00;100932.94;5083220;28;20048;-56
2023/07/20 09:43:15;;;;;;;2.90;0.45;;;;;;;18.85;100.00;100925.88;5078949;28;20044;-56
2023/07/20 09:45:45;;;;;;;3.38;0.73;;;;;;;19.02;100.00;100929.06;5085405;28;20052;-56
2023/07/20 09:48:14;;;;;;;1.35;0.60;;;;;;;19.23;100.00;100940.75;5087943;28;20083;-55
2023/07/20 09:50:51;;;;;;;3.13;0.45;;;;;;;18.84;100.00;100934.88;5080348;28;20110;-55
2023/07/20 09:53:19;;;;;;;2.15;0.63;;;;;;;18.67;100.00;100935.31;5085511;28;20502;-56
2023/07/20 09:55:50;;;;;;;4.45;0.60;;;;;;;19.13;100.00;100931.75;5084403;28;20479;-57
2023/07/20 09:58:17;;;;;;;4.53;0.55;;;;;;;19.53;100.00;100938.44;5086139;28;20050;-55
2023/07/20 10:00:46;;;;;;;2.72;0.80;;;;;;;18.77;100.00;100936.28;5083197;28;20097;-57
2023/07/20 10:03:19;;;;;;;4.32;0.60;;;;;;;18.77;100.00;100936.28;5086865;28;20062;-56
2023/07/20 10:05:58;;;;;;;2.28;0.40;;;;;;;19.38;100.00;100937.81;5082693;28;20052;-57
2023/07/20 10:08:26;;;;;;;3.70;0.75;;;;;;;19.53;100.00;100950.00;5082458;28;20044;-57
2023/07/20 10:10:59;;;;;;;1.95;0.52;;;;;;;19.75;100.00;100937.56;5089183;28;20484;-55
2023/07/20 10:13:28;;;;;;;0.77;0.38;;;;;;;19.53;100.00;100936.59;5080721;28;20068;-56
2023/07/20 10:16:21;;;;;;;1.42;0.50;;;;;;;20.36;100.00;100943.22;5092538;28;20048;-55
2023/07/20 10:19:25;;;;;;;2.50;0.80;;;;;;;19.67;100.00;100929.28;5081202;28;20104;-55
2023/07/20 10:22:00;;;;;;;2.35;0.60;;;;;;;20.30;100.00;100935.69;5082701;28;20044;-55
2023/07/20 10:24:31;;;;;;;1.48;0.70;;;;;;;19.56;100.00;100930.97;5080950;28;20131;-57
2023/07/20 10:26:58;;;;;;;2.67;0.57;;;;;;;20.38;100.00;100923.47;5088411;28;20054;-57
2023/07/20 10:29:27;;;;;;;1.70;0.82;;;;;;;20.56;100.00;100921.88;5086493;28;20485;-57
2023/07/20 10:31:56;;;;;;;;;;;;;;;19.45;100.00;100931.00;5083813;28;20043;-56
2023/07/20 10:34:23;;;;;;;3.10;1.08;;;;;;;18.86;100.00;100930.28;5091033;28;19935;-56
2023/07/20 10:36:54;;;;;;;3.92;2.60;;;;;;;19.04;100.00;100933.34;5086236;28;20415;-56
2023/07/20 10:39:28;;;;;;;0.70;0.40;;;;;;;19.00;100.00;100931.00;5083266;28;20047;-56
2023/07/20 10:42:09;;;;;;;3.45;1.33;;;;;;;18.48;100.00;100936.69;5082408;28;20206;-56
2023/07/20 10:44:40;;;;;;;2.58;0.90;;;;;;;18.38;100.00;100940.19;5079151;28;20127;-56
2023/07/20 10:47:11;;;;;;;2.70;0.75;;;;;;;18.40;100.00;100922.19;5080545;28;20044;-56
2023/07/20 10:50:01;;;;;;;1.67;0.65;;;;;;;18.28;100.00;100932.00;5082953;28;20134;-56
2023/07/20 10:52:39;;;;;;;1.52;1.05;;;;;;;18.47;100.00;100945.72;5086170;28;20036;-57
2023/07/20 10:55:16;;;;;;;1.60;0.77;;;;;;;18.37;100.00;100942.00;5073421;28;20048;-57
2023/07/20 10:57:43;;;;;;;4.90;0.90;;;;;;;17.80;100.00;100952.41;5078885;28;20494;-56
2023/07/20 11:00:14;;;;;;;2.20;1.10;;;;;;;17.30;100.00;100956.88;5086527;28;20075;-55
2023/07/20 11:02:49;;;;;;;1.70;1.27;;;;;;;16.98;100.00;100957.31;5085552;28;20059;-56
2023/07/20 11:05:38;;;;;;;3.75;1.00;;;;;;;16.99;100.00;100983.06;5084870;28;20063;-55
2023/07/20 11:08:10;;;;;;;3.83;0.80;;;;;;;16.91;100.00;100979.22;5080852;28;20135;-56
2023/07/20 11:10:36;;;;;;;2.20;1.02;;;;;;;17.11;100.00;100991.19;5078710;28;20044;-56
2023/07/20 11:13:26;;;;;;;2.50;1.10;;;;;;;17.47;100.00;100982.41;5081706;28;20062;-56
2023/07/20 11:15:56;;;;;;;2.65;0.95;;;;;;;17.93;100.00;100975.59;5082492;28;20066;-56
2023/07/20 11:18:25;;;;;;;5.10;2.10;;;;;;;18.47;100.00;100976.94;5080984;28;21563;-58
2023/07/20 11:20:53;;;;;;;12.77;1.17;;;;;;;18.51;100.00;100968.59;5085111;28;20043;-57